createdAt,value
2018-12-30T00:00:32.337Z,1285.90
2018-12-30T00:01:32.356Z,1284.90
2018-12-30T00:02:32.333Z,1300.40
2018-12-30T00:03:32.320Z,1286.30
2018-12-30T00:04:32.315Z,1298.60
2018-12-30T00:05:32.310Z,1307.40
2018-12-30T00:06:32.310Z,1301.40
2018-12-30T00:07:32.385Z,1296.30
2018-12-30T00:08:32.283Z,1320.40
2018-12-30T00:09:32.265Z,1309.20
2018-12-30T00:10:32.278Z,1323.80
2018-12-30T00:11:32.285Z,1316.20
2018-12-30T00:12:32.258Z,1335.10
2018-12-30T00:13:32.261Z,1315.50
2018-12-30T00:14:32.245Z,1323.40
2018-12-30T00:15:32.228Z,1305.60
2018-12-30T00:16:32.223Z,1290.50
2018-12-30T00:17:32.239Z,1284.60
2018-12-30T00:18:32.210Z,1292.20
2018-12-30T00:19:42.402Z,1300.20
2018-12-30T00:20:32.203Z,1311.80
2018-12-30T00:21:32.214Z,1289.00
2018-12-30T00:22:32.189Z,1279.00
2018-12-30T00:23:32.194Z,1287.50
2018-12-30T00:24:32.165Z,1289.90
2018-12-30T00:25:32.153Z,1285.70
2018-12-30T00:26:32.161Z,1293.50
2018-12-30T00:27:32.156Z,1298.20
2018-12-30T00:28:32.154Z,1289.80
2018-12-30T00:29:32.132Z,1300.00
2018-12-30T00:30:32.135Z,1290.30
2018-12-30T00:31:32.146Z,1280.70
2018-12-30T00:32:32.111Z,1307.00
2018-12-30T00:33:32.118Z,1281.20
2018-12-30T00:34:32.113Z,1294.70
2018-12-30T00:35:32.112Z,1285.70
2018-12-30T00:36:32.103Z,1301.90
2018-12-30T00:37:32.097Z,1305.40
2018-12-30T00:38:32.069Z,1298.60
2018-12-30T00:39:32.086Z,1303.40
2018-12-30T00:40:32.065Z,1291.20
2018-12-30T00:41:32.062Z,1289.10
2018-12-30T00:42:32.036Z,1299.80
2018-12-30T00:43:32.040Z,1312.80
2018-12-30T00:44:32.029Z,1298.40
2018-12-30T00:45:32.015Z,1297.50
2018-12-30T00:46:32.012Z,1298.80
2018-12-30T00:47:32.001Z,1289.40
2018-12-30T00:48:32.013Z,1301.80
2018-12-30T00:49:32.049Z,1303.50
2018-12-30T00:50:31.989Z,1303.40
2018-12-30T00:51:31.980Z,1301.60
2018-12-30T00:52:31.981Z,1306.10
2018-12-30T00:53:31.994Z,1301.70
2018-12-30T00:54:31.973Z,1306.40
2018-12-30T00:55:31.953Z,1300.70
2018-12-30T00:56:31.961Z,1332.90
2018-12-30T00:57:31.958Z,1323.70
2018-12-30T00:58:31.947Z,1329.40
2018-12-30T00:59:31.919Z,1337.40
2018-12-30T01:00:31.931Z,1327.70
2018-12-30T01:01:31.913Z,1333.10
2018-12-30T01:02:31.923Z,1330.00
2018-12-30T01:03:31.925Z,1318.80
2018-12-30T01:04:31.950Z,1324.80
2018-12-30T01:05:31.901Z,1329.10
2018-12-30T01:06:31.883Z,1327.70
2018-12-30T01:07:31.878Z,1323.10
2018-12-30T01:08:31.888Z,1315.50
2018-12-30T01:09:31.890Z,1316.80
2018-12-30T01:10:31.867Z,1300.80
2018-12-30T01:11:31.853Z,1302.60
2018-12-30T01:12:31.855Z,1301.50
2018-12-30T01:13:31.843Z,1291.00
2018-12-30T01:14:31.817Z,1299.70
2018-12-30T01:15:31.832Z,1301.60
2018-12-30T01:16:31.800Z,1299.60
2018-12-30T01:17:31.811Z,1311.20
2018-12-30T01:18:31.849Z,1308.70
2018-12-30T01:19:31.778Z,1309.70
2018-12-30T01:20:31.807Z,1309.50
2018-12-30T01:21:31.773Z,1296.00
2018-12-30T01:22:31.800Z,1298.70
2018-12-30T01:23:31.783Z,1287.10
2018-12-30T01:24:31.771Z,1306.00
2018-12-30T01:25:31.775Z,1315.90
2018-12-30T01:26:31.794Z,1306.00
2018-12-30T01:27:31.752Z,1318.40
2018-12-30T01:28:31.746Z,1318.10
2018-12-30T01:29:31.721Z,1302.60
2018-12-30T01:30:31.724Z,1310.30
2018-12-30T01:31:31.757Z,1308.20
2018-12-30T01:32:31.715Z,1320.50
2018-12-30T01:33:31.691Z,1304.40
2018-12-30T01:34:31.700Z,1309.10
2018-12-30T01:35:31.678Z,1303.50
2018-12-30T01:36:31.679Z,1312.20
2018-12-30T01:37:31.681Z,1314.60
2018-12-30T01:38:31.691Z,1311.30
2018-12-30T01:39:31.691Z,1313.60
2018-12-30T01:40:31.666Z,1323.00
2018-12-30T01:41:31.669Z,1301.30
2018-12-30T01:42:31.650Z,1306.70
2018-12-30T01:43:31.642Z,1311.60
2018-12-30T01:44:31.624Z,1301.00
2018-12-30T01:45:31.605Z,1307.40
2018-12-30T01:46:31.642Z,1305.00
2018-12-30T01:47:31.618Z,1301.10
2018-12-30T01:48:31.603Z,1292.60
2018-12-30T01:49:31.639Z,1305.50
2018-12-30T01:50:31.605Z,1306.70
2018-12-30T01:51:33.169Z,1301.30
2018-12-30T01:52:31.585Z,1302.80
2018-12-30T01:53:31.579Z,1309.30
2018-12-30T01:54:31.549Z,1304.70
2018-12-30T01:55:31.548Z,1309.70
2018-12-30T01:56:31.568Z,1302.50
2018-12-30T01:57:31.542Z,1305.50
2018-12-30T01:58:31.527Z,1313.60
2018-12-30T01:59:31.542Z,1299.80
2018-12-30T02:00:31.534Z,1311.80
2018-12-30T02:01:31.526Z,1311.30
2018-12-30T02:02:31.510Z,1299.50
2018-12-30T02:03:31.508Z,1297.30
2018-12-30T02:04:31.480Z,1304.00
2018-12-30T02:05:31.495Z,1310.20
2018-12-30T02:06:31.483Z,1306.90
2018-12-30T02:07:31.489Z,1311.00
2018-12-30T02:08:31.450Z,1291.10
2018-12-30T02:09:31.460Z,1302.20
2018-12-30T02:10:31.443Z,1292.90
2018-12-30T02:11:31.459Z,1332.80
2018-12-30T02:12:31.432Z,1322.60
2018-12-30T02:13:31.448Z,1322.80
2018-12-30T02:14:31.440Z,1325.70
2018-12-30T02:15:31.409Z,1330.20
2018-12-30T02:16:31.408Z,1316.80
2018-12-30T02:17:31.451Z,1307.90
2018-12-30T02:18:31.377Z,1297.60
2018-12-30T02:19:31.405Z,1313.00
2018-12-30T02:20:31.379Z,1317.70
2018-12-30T02:21:31.370Z,1308.20
2018-12-30T02:22:31.377Z,1317.10
2018-12-30T02:23:31.361Z,1311.50
2018-12-30T02:24:31.341Z,1308.70
2018-12-30T02:25:31.349Z,1317.10
2018-12-30T02:26:31.323Z,1322.40
2018-12-30T02:27:31.300Z,1302.50
2018-12-30T02:28:31.361Z,1313.60
2018-12-30T02:29:31.303Z,1309.60
2018-12-30T02:30:31.325Z,1304.20
2018-12-30T02:31:31.305Z,1298.20
2018-12-30T02:32:31.289Z,1301.00
2018-12-30T02:33:31.322Z,1315.70
2018-12-30T02:34:31.258Z,1306.80
2018-12-30T02:35:31.286Z,1298.50
2018-12-30T02:36:31.268Z,1302.50
2018-12-30T02:37:31.232Z,1313.00
2018-12-30T02:38:31.262Z,1310.10
2018-12-30T02:39:31.252Z,1310.10
2018-12-30T02:40:31.231Z,1305.90
2018-12-30T02:41:31.242Z,1313.90
2018-12-30T02:42:31.207Z,1300.40
2018-12-30T02:43:31.226Z,1300.60
2018-12-30T02:44:31.252Z,1299.20
2018-12-30T02:45:31.210Z,1297.00
2018-12-30T02:46:31.245Z,1301.00
2018-12-30T02:47:31.234Z,1301.50
2018-12-30T02:48:31.185Z,1301.20
2018-12-30T02:49:31.180Z,1312.10
2018-12-30T02:50:31.208Z,1301.70
2018-12-30T02:51:31.151Z,1292.90
2018-12-30T02:52:31.157Z,1304.60
2018-12-30T02:53:31.146Z,1297.30
2018-12-30T02:54:31.159Z,1300.60
2018-12-30T02:55:31.135Z,1303.10
2018-12-30T02:56:31.136Z,1318.00
2018-12-30T02:57:31.118Z,1293.10
2018-12-30T02:58:31.121Z,1311.80
2018-12-30T02:59:31.093Z,1366.40
2018-12-30T03:00:31.094Z,1365.30
2018-12-30T03:01:31.092Z,1352.80
2018-12-30T03:02:31.070Z,1336.20
2018-12-30T03:03:31.071Z,1336.30
2018-12-30T03:04:31.094Z,1353.70
2018-12-30T03:05:31.056Z,1326.60
2018-12-30T03:06:31.038Z,1340.20
2018-12-30T03:07:31.050Z,1339.50
2018-12-30T03:08:31.077Z,1328.70
2018-12-30T03:09:31.050Z,1330.40
2018-12-30T03:10:31.027Z,1328.40
2018-12-30T03:11:31.015Z,1336.00
2018-12-30T03:12:31.026Z,1351.50
2018-12-30T03:13:31.010Z,1342.10
2018-12-30T03:14:31.009Z,1355.40
2018-12-30T03:15:31.034Z,1359.70
2018-12-30T03:16:30.965Z,1331.40
2018-12-30T03:17:30.961Z,1338.20
2018-12-30T03:18:30.969Z,1319.80
2018-12-30T03:19:30.961Z,1341.70
2018-12-30T03:20:30.942Z,1325.00
2018-12-30T03:21:30.950Z,1311.60
2018-12-30T03:22:30.945Z,1326.90
2018-12-30T03:23:30.917Z,1314.00
2018-12-30T03:24:30.936Z,1316.90
2018-12-30T03:25:30.909Z,1326.00
2018-12-30T03:26:30.909Z,1305.10
2018-12-30T03:27:30.898Z,1302.90
2018-12-30T03:28:30.940Z,1323.60
2018-12-30T03:29:30.879Z,1315.40
2018-12-30T03:30:30.927Z,1313.80
2018-12-30T03:31:30.867Z,1308.10
2018-12-30T03:32:30.916Z,1306.40
2018-12-30T03:33:30.852Z,1305.40
2018-12-30T03:34:30.872Z,1304.50
2018-12-30T03:35:30.834Z,1313.40
2018-12-30T03:36:30.889Z,1315.60
2018-12-30T03:37:30.821Z,1312.80
2018-12-30T03:38:30.827Z,1309.50
2018-12-30T03:39:30.813Z,1306.10
2018-12-30T03:40:30.815Z,1311.70
2018-12-30T03:41:30.799Z,1297.10
2018-12-30T03:42:30.842Z,1321.20
2018-12-30T03:43:30.789Z,1305.00
2018-12-30T03:44:30.788Z,1302.20
2018-12-30T03:45:30.766Z,1301.50
2018-12-30T03:46:30.783Z,1320.30
2018-12-30T03:47:30.801Z,1320.50
2018-12-30T03:48:30.775Z,1309.20
2018-12-30T03:49:30.769Z,1303.50
2018-12-30T03:50:30.780Z,1316.50
2018-12-30T03:51:30.771Z,1320.70
2018-12-30T03:52:30.718Z,1324.10
2018-12-30T03:53:30.706Z,1310.90
2018-12-30T03:54:30.711Z,1314.70
2018-12-30T03:55:30.701Z,1319.90
2018-12-30T03:56:30.705Z,1318.00
2018-12-30T03:57:30.680Z,1322.30
2018-12-30T03:58:30.678Z,1316.20
2018-12-30T03:59:30.671Z,1320.90
2018-12-30T04:00:30.683Z,1318.40
2018-12-30T04:01:30.667Z,1327.10
2018-12-30T04:02:30.627Z,1313.50
2018-12-30T04:03:30.636Z,1326.50
2018-12-30T04:04:30.635Z,1323.30
2018-12-30T04:05:30.672Z,1308.90
2018-12-30T04:06:30.674Z,1314.50
2018-12-30T04:07:30.648Z,1299.30
2018-12-30T04:08:30.625Z,1310.30
2018-12-30T04:09:30.580Z,1306.50
2018-12-30T04:10:30.599Z,1307.70
2018-12-30T04:11:30.610Z,1312.10
2018-12-30T04:12:30.551Z,1311.30
2018-12-30T04:13:30.558Z,1308.50
2018-12-30T04:14:30.571Z,1303.90
2018-12-30T04:15:30.544Z,1318.50
2018-12-30T04:16:30.546Z,1313.90
2018-12-30T04:17:30.551Z,1304.70
2018-12-30T04:18:30.522Z,1309.20
2018-12-30T04:19:30.513Z,1313.00
2018-12-30T04:20:30.524Z,1300.20
2018-12-30T04:21:30.485Z,1304.00
2018-12-30T04:22:30.503Z,1301.60
2018-12-30T04:23:30.490Z,1314.00
2018-12-30T04:24:30.482Z,1307.50
2018-12-30T04:25:30.484Z,1303.30
2018-12-30T04:26:30.489Z,1318.20
2018-12-30T04:27:30.457Z,1318.80
2018-12-30T04:28:30.477Z,1319.60
2018-12-30T04:29:30.452Z,1312.00
2018-12-30T04:30:30.449Z,1290.30
2018-12-30T04:31:30.426Z,1295.70
2018-12-30T04:32:30.422Z,1307.50
2018-12-30T04:33:30.417Z,1310.00
2018-12-30T04:34:30.418Z,1311.00
2018-12-30T04:35:30.435Z,1305.00
2018-12-30T04:36:30.407Z,1313.00
2018-12-30T04:37:30.402Z,1308.20
2018-12-30T04:38:30.393Z,1303.90
2018-12-30T04:39:30.383Z,1310.30
2018-12-30T04:40:30.371Z,1306.10
2018-12-30T04:41:30.373Z,1305.20
2018-12-30T04:42:30.361Z,1312.50
2018-12-30T04:43:30.373Z,1302.60
2018-12-30T04:44:30.337Z,1308.10
2018-12-30T04:45:30.316Z,1311.50
2018-12-30T04:46:30.347Z,1315.50
2018-12-30T04:47:30.312Z,1296.50
2018-12-30T04:48:30.300Z,1301.40
2018-12-30T04:49:30.328Z,1314.40
2018-12-30T04:50:30.301Z,1306.00
2018-12-30T04:51:30.278Z,1307.90
2018-12-30T04:52:30.285Z,1289.70
2018-12-30T04:53:30.287Z,1303.20
2018-12-30T04:54:30.269Z,1303.10
2018-12-30T04:55:30.267Z,1295.80
2018-12-30T04:56:30.244Z,1300.10
2018-12-30T04:57:30.241Z,1301.70
2018-12-30T04:58:30.243Z,1303.40
2018-12-30T04:59:30.219Z,1305.20
2018-12-30T05:00:30.217Z,1310.90
2018-12-30T05:01:30.221Z,1300.10
2018-12-30T05:02:30.207Z,1308.90
2018-12-30T05:03:30.211Z,1300.30
2018-12-30T05:04:30.192Z,1304.80
2018-12-30T05:05:30.195Z,1319.10
2018-12-30T05:06:30.181Z,1306.00
2018-12-30T05:07:30.187Z,1309.90
2018-12-30T05:08:30.212Z,1303.30
2018-12-30T05:09:30.182Z,1318.10
2018-12-30T05:10:30.144Z,1295.50
2018-12-30T05:11:30.125Z,1308.00
2018-12-30T05:12:30.112Z,1308.60
2018-12-30T05:13:30.121Z,1307.40
2018-12-30T05:14:30.153Z,1319.10
2018-12-30T05:15:30.124Z,1307.70
2018-12-30T05:16:30.115Z,1323.10
2018-12-30T05:17:30.080Z,1314.40
2018-12-30T05:18:30.093Z,1314.00
2018-12-30T05:19:30.091Z,1304.50
2018-12-30T05:20:30.080Z,1314.90
2018-12-30T05:21:30.089Z,1315.10
2018-12-30T05:22:33.852Z,1323.00
2018-12-30T05:23:30.070Z,1317.80
2018-12-30T05:24:30.052Z,1318.00
2018-12-30T05:25:30.076Z,1317.00
2018-12-30T05:26:30.048Z,1310.20
2018-12-30T05:27:30.024Z,1322.60
2018-12-30T05:28:30.024Z,1311.50
2018-12-30T05:29:30.011Z,1314.50
2018-12-30T05:30:30.039Z,1329.30
2018-12-30T05:31:29.999Z,1314.10
2018-12-30T05:32:29.993Z,1315.30
2018-12-30T05:33:30.026Z,1307.30
2018-12-30T05:34:29.973Z,1298.60
2018-12-30T05:35:29.976Z,1295.80
2018-12-30T05:36:29.964Z,1306.60
2018-12-30T05:37:29.952Z,1311.50
2018-12-30T05:38:29.954Z,1313.40
2018-12-30T05:39:29.946Z,1313.80
2018-12-30T05:40:29.963Z,1306.20
2018-12-30T05:41:29.918Z,1316.60
2018-12-30T05:42:29.918Z,1316.60
2018-12-30T05:43:29.909Z,1315.70
2018-12-30T05:44:29.906Z,1301.80
2018-12-30T05:45:29.876Z,1304.90
2018-12-30T05:46:29.886Z,1304.90
2018-12-30T05:47:29.890Z,1290.50
2018-12-30T05:48:29.878Z,1300.30
2018-12-30T05:49:29.863Z,1303.10
2018-12-30T05:50:29.842Z,1311.70
2018-12-30T05:51:29.834Z,1305.10
2018-12-30T05:52:29.825Z,1302.10
2018-12-30T05:53:29.811Z,1299.20
2018-12-30T05:54:29.820Z,1303.70
2018-12-30T05:55:29.847Z,1306.10
2018-12-30T05:56:29.816Z,1305.00
2018-12-30T05:57:29.837Z,1312.50
2018-12-30T05:58:29.791Z,1294.10
2018-12-30T05:59:29.780Z,1312.10
2018-12-30T06:00:29.784Z,1305.20
2018-12-30T06:01:29.785Z,1314.30
2018-12-30T06:02:29.770Z,1307.20
2018-12-30T06:03:29.778Z,1320.30
2018-12-30T06:04:29.723Z,1321.90
2018-12-30T06:05:29.732Z,1319.60
2018-12-30T06:06:29.737Z,1318.10
2018-12-30T06:07:29.713Z,1312.20
2018-12-30T06:08:29.724Z,1315.50
2018-12-30T06:09:29.697Z,1314.00
2018-12-30T06:10:29.683Z,1327.00
2018-12-30T06:11:29.946Z,1316.40
2018-12-30T06:12:29.666Z,1311.60
2018-12-30T06:13:29.680Z,1321.90
2018-12-30T06:14:29.664Z,1340.40
2018-12-30T06:15:29.677Z,1322.90
2018-12-30T06:16:29.654Z,1287.00
2018-12-30T06:17:29.653Z,1298.50
2018-12-30T06:18:29.650Z,1303.80
2018-12-30T06:19:29.622Z,1300.70
2018-12-30T06:20:29.618Z,1297.40
2018-12-30T06:21:29.665Z,1305.00
2018-12-30T06:22:29.886Z,1315.10
2018-12-30T06:23:29.590Z,1319.40
2018-12-30T06:24:29.573Z,1311.60
2018-12-30T06:25:29.599Z,1302.80
2018-12-30T06:26:29.583Z,1304.20
2018-12-30T06:27:29.591Z,1300.20
2018-12-30T06:28:29.558Z,1291.40
2018-12-30T06:29:29.565Z,1277.10
2018-12-30T06:30:29.555Z,1280.20
2018-12-30T06:31:29.550Z,1318.70
2018-12-30T06:32:29.526Z,1303.60
2018-12-30T06:33:29.529Z,1308.10
2018-12-30T06:34:29.512Z,1301.40
2018-12-30T06:35:29.496Z,1301.90
2018-12-30T06:36:29.505Z,1307.80
2018-12-30T06:37:29.506Z,1300.00
2018-12-30T06:38:29.473Z,1294.00
2018-12-30T06:39:29.479Z,1305.30
2018-12-30T06:40:29.473Z,1315.20
2018-12-30T06:41:29.446Z,1315.30
2018-12-30T06:42:29.455Z,1306.30
2018-12-30T06:43:29.457Z,1310.60
2018-12-30T06:44:29.451Z,1306.40
2018-12-30T06:45:29.450Z,1301.50
2018-12-30T06:46:29.448Z,1288.00
2018-12-30T06:47:29.438Z,1296.80
2018-12-30T06:48:29.426Z,1298.20
2018-12-30T06:49:29.383Z,1281.50
2018-12-30T06:50:29.415Z,1300.40
2018-12-30T06:51:29.377Z,1295.30
2018-12-30T06:52:29.387Z,1302.60
2018-12-30T06:53:29.383Z,1290.60
2018-12-30T06:54:29.380Z,1309.20
2018-12-30T06:55:29.333Z,1297.00
2018-12-30T06:56:29.362Z,1289.80
2018-12-30T06:57:29.350Z,1291.30
2018-12-30T06:58:29.355Z,1298.80
2018-12-30T06:59:29.330Z,1302.50
2018-12-30T07:00:29.351Z,1314.60
2018-12-30T07:01:29.317Z,1307.60
2018-12-30T07:02:29.336Z,1308.10
2018-12-30T07:03:29.300Z,1304.10
2018-12-30T07:04:29.303Z,1297.80
2018-12-30T07:05:29.280Z,1285.60
2018-12-30T07:06:29.287Z,1289.60
2018-12-30T07:07:29.267Z,1288.20
2018-12-30T07:08:29.248Z,1295.10
2018-12-30T07:09:29.269Z,1299.60
2018-12-30T07:10:29.278Z,1296.80
2018-12-30T07:11:29.255Z,1294.30
2018-12-30T07:12:29.207Z,1296.00
2018-12-30T07:13:29.475Z,1290.10
2018-12-30T07:14:29.215Z,1298.20
2018-12-30T07:15:29.216Z,1289.50
2018-12-30T07:16:29.193Z,1290.40
2018-12-30T07:17:29.209Z,1297.40
2018-12-30T07:18:29.167Z,1307.10
2018-12-30T07:19:29.184Z,1315.60
2018-12-30T07:20:29.155Z,1296.30
2018-12-30T07:21:29.158Z,1290.70
2018-12-30T07:22:29.147Z,1295.60
2018-12-30T07:23:29.139Z,1299.30
2018-12-30T07:24:29.125Z,1305.50
2018-12-30T07:25:29.141Z,1298.70
2018-12-30T07:26:29.106Z,1299.60
2018-12-30T07:27:29.124Z,1285.10
2018-12-30T07:28:29.119Z,1281.20
2018-12-30T07:29:29.113Z,1275.80
2018-12-30T07:30:29.106Z,1298.40
2018-12-30T07:31:29.131Z,1293.60
2018-12-30T07:32:29.093Z,1299.20
2018-12-30T07:33:29.050Z,1297.60
2018-12-30T07:34:29.060Z,1308.00
2018-12-30T07:35:29.067Z,1290.70
2018-12-30T07:36:29.052Z,1290.90
2018-12-30T07:37:29.017Z,1288.20
2018-12-30T07:38:29.041Z,1295.90
2018-12-30T07:39:29.022Z,1295.60
2018-12-30T07:40:29.029Z,1282.70
2018-12-30T07:41:28.999Z,1289.40
2018-12-30T07:42:28.973Z,1302.10
2018-12-30T07:43:28.976Z,1308.50
2018-12-30T07:44:29.037Z,1313.50
2018-12-30T07:45:29.016Z,1309.30
2018-12-30T07:46:28.952Z,1320.70
2018-12-30T07:47:28.959Z,1318.00
2018-12-30T07:48:28.944Z,1319.90
2018-12-30T07:49:28.929Z,1341.90
2018-12-30T07:50:28.929Z,1317.50
2018-12-30T07:51:28.920Z,1329.30
2018-12-30T07:52:28.920Z,1331.30
2018-12-30T07:53:28.906Z,1324.30
2018-12-30T07:54:28.886Z,1320.40
2018-12-30T07:55:28.893Z,1322.90
2018-12-30T07:56:28.897Z,1329.60
2018-12-30T07:57:28.893Z,1319.80
2018-12-30T07:58:28.867Z,1334.80
2018-12-30T07:59:28.873Z,1321.70
2018-12-30T08:00:28.867Z,1348.70
2018-12-30T08:01:28.855Z,1346.40
2018-12-30T08:02:28.856Z,1373.60
2018-12-30T08:03:28.862Z,1334.40
2018-12-30T08:04:28.806Z,1318.30
2018-12-30T08:05:28.818Z,1312.50
2018-12-30T08:06:28.797Z,1357.30
2018-12-30T08:07:28.807Z,1351.60
2018-12-30T08:08:28.822Z,1333.60
2018-12-30T08:09:28.822Z,1323.00
2018-12-30T08:10:28.788Z,1328.10
2018-12-30T08:11:28.768Z,1315.40
2018-12-30T08:12:28.765Z,1345.60
2018-12-30T08:13:28.745Z,1336.50
2018-12-30T08:14:28.743Z,1344.40
2018-12-30T08:15:28.743Z,1352.00
2018-12-30T08:16:28.973Z,1344.30
2018-12-30T08:17:28.740Z,1326.20
2018-12-30T08:18:28.728Z,1318.00
2018-12-30T08:19:28.713Z,1314.70
2018-12-30T08:20:28.713Z,1315.70
2018-12-30T08:21:28.702Z,1305.10
2018-12-30T08:22:28.685Z,1287.10
2018-12-30T08:23:28.679Z,1297.60
2018-12-30T08:24:28.689Z,1304.80
2018-12-30T08:25:28.659Z,1283.50
2018-12-30T08:26:28.687Z,1292.70
2018-12-30T08:27:28.652Z,1279.90
2018-12-30T08:28:28.617Z,1292.80
2018-12-30T08:29:28.621Z,1291.70
2018-12-30T08:30:28.616Z,1294.50
2018-12-30T08:31:28.898Z,1309.00
2018-12-30T08:32:28.594Z,1328.60
2018-12-30T08:33:28.635Z,1313.40
2018-12-30T08:34:28.584Z,1287.40
2018-12-30T08:35:28.586Z,1286.90
2018-12-30T08:36:28.563Z,1312.90
2018-12-30T08:37:28.568Z,1300.40
2018-12-30T08:38:28.556Z,1311.00
2018-12-30T08:39:28.533Z,1299.70
2018-12-30T08:40:28.552Z,1302.60
2018-12-30T08:41:28.525Z,1300.20
2018-12-30T08:42:28.505Z,1283.30
2018-12-30T08:43:28.519Z,1297.70
2018-12-30T08:44:28.506Z,1300.90
2018-12-30T08:45:28.549Z,1295.60
2018-12-30T08:46:28.487Z,1296.30
2018-12-30T08:47:28.528Z,1300.90
2018-12-30T08:48:28.560Z,1288.70
2018-12-30T08:49:28.441Z,1299.30
2018-12-30T08:50:28.457Z,1292.10
2018-12-30T08:51:28.457Z,1287.40
2018-12-30T08:52:28.449Z,1299.10
2018-12-30T08:53:29.433Z,1303.50
2018-12-30T08:54:28.426Z,1294.90
2018-12-30T08:55:28.414Z,1296.00
2018-12-30T08:56:28.408Z,1294.60
2018-12-30T08:57:28.408Z,1289.90
2018-12-30T08:58:28.387Z,1295.70
2018-12-30T08:59:28.363Z,1297.20
2018-12-30T09:00:28.419Z,1288.30
2018-12-30T09:01:28.716Z,1289.30
2018-12-30T09:02:28.374Z,1302.90
2018-12-30T09:03:28.339Z,1285.70
2018-12-30T09:04:28.319Z,1291.10
2018-12-30T09:05:28.320Z,1290.30
2018-12-30T09:06:28.332Z,1290.20
2018-12-30T09:07:28.302Z,1280.80
2018-12-30T09:08:28.312Z,1295.60
2018-12-30T09:09:28.293Z,1290.70
2018-12-30T09:10:28.294Z,1300.90
2018-12-30T09:11:28.293Z,1280.30
2018-12-30T09:12:28.338Z,1290.80
2018-12-30T09:13:28.261Z,1277.80
2018-12-30T09:14:28.270Z,1278.20
2018-12-30T09:15:28.271Z,1327.10
2018-12-30T09:16:28.236Z,1303.80
2018-12-30T09:17:28.253Z,1316.40
2018-12-30T09:18:28.259Z,1300.70
2018-12-30T09:19:28.210Z,1317.90
2018-12-30T09:20:28.201Z,1272.50
2018-12-30T09:21:28.205Z,1277.90
2018-12-30T09:22:28.199Z,1296.20
2018-12-30T09:23:28.499Z,1285.70
2018-12-30T09:24:28.162Z,1264.30
2018-12-30T09:25:28.167Z,1253.40
2018-12-30T09:26:28.149Z,1279.50
2018-12-30T09:27:28.155Z,1279.10
2018-12-30T09:28:28.157Z,1279.80
2018-12-30T09:29:28.139Z,1263.60
2018-12-30T09:30:28.125Z,1270.90
2018-12-30T09:31:28.133Z,1263.70
2018-12-30T09:32:28.144Z,1286.20
2018-12-30T09:33:28.079Z,1264.10
2018-12-30T09:34:28.125Z,1251.40
2018-12-30T09:35:28.102Z,1249.10
2018-12-30T09:36:28.092Z,1298.00
2018-12-30T09:37:28.090Z,1280.00
2018-12-30T09:38:28.083Z,1255.60
2018-12-30T09:39:28.066Z,1246.10
2018-12-30T09:40:28.044Z,1259.90
2018-12-30T09:41:28.033Z,1279.20
2018-12-30T09:42:28.075Z,1271.20
2018-12-30T09:43:28.042Z,1264.60
2018-12-30T09:44:28.010Z,1270.00
2018-12-30T09:45:28.062Z,1265.80
2018-12-30T09:46:27.989Z,1269.20
2018-12-30T09:47:27.981Z,1280.00
2018-12-30T09:48:33.787Z,1259.70
2018-12-30T09:49:27.970Z,1276.80
2018-12-30T09:50:27.954Z,1287.30
2018-12-30T09:51:27.962Z,1277.70
2018-12-30T09:52:27.961Z,1295.40
2018-12-30T09:53:27.945Z,1274.90
2018-12-30T09:54:27.915Z,1285.20
2018-12-30T09:55:27.922Z,1273.10
2018-12-30T09:56:27.926Z,1274.70
2018-12-30T09:57:27.916Z,1273.30
2018-12-30T09:58:27.907Z,1267.70
2018-12-30T09:59:27.900Z,1262.40
2018-12-30T10:00:27.895Z,1267.80
2018-12-30T10:01:27.894Z,1240.90
2018-12-30T10:02:27.918Z,1280.50
2018-12-30T10:03:27.878Z,1281.90
2018-12-30T10:04:27.861Z,1259.40
2018-12-30T10:05:27.857Z,1274.30
2018-12-30T10:06:27.832Z,1275.20
2018-12-30T10:07:27.839Z,1264.70
2018-12-30T10:08:27.824Z,1273.70
2018-12-30T10:09:27.885Z,1265.60
2018-12-30T10:10:27.803Z,1268.50
2018-12-30T10:11:27.832Z,1270.20
2018-12-30T10:12:27.794Z,1281.60
2018-12-30T10:13:27.804Z,1270.20
2018-12-30T10:14:27.781Z,1266.70
2018-12-30T10:15:27.796Z,1276.90
2018-12-30T10:16:27.823Z,1271.20
2018-12-30T10:17:27.758Z,1278.40
2018-12-30T10:18:27.779Z,1270.80
2018-12-30T10:19:27.769Z,1270.90
2018-12-30T10:20:27.746Z,1260.10
2018-12-30T10:21:27.735Z,1260.10
2018-12-30T10:22:27.730Z,1265.30
2018-12-30T10:23:27.745Z,1274.80
2018-12-30T10:24:27.724Z,1270.40
2018-12-30T10:25:27.727Z,1264.60
2018-12-30T10:26:27.686Z,1275.80
2018-12-30T10:27:27.724Z,1266.60
2018-12-30T10:28:27.677Z,1273.00
2018-12-30T10:29:27.700Z,1258.30
2018-12-30T10:30:27.719Z,1268.90
2018-12-30T10:31:27.662Z,1263.80
2018-12-30T10:32:27.698Z,1269.90
2018-12-30T10:33:27.659Z,1255.30
2018-12-30T10:34:27.664Z,1264.40
2018-12-30T10:35:27.627Z,1268.90
2018-12-30T10:36:27.640Z,1257.60
2018-12-30T10:37:27.635Z,1251.50
2018-12-30T10:38:27.611Z,1247.10
2018-12-30T10:39:27.627Z,1247.50
2018-12-30T10:40:27.624Z,1249.10
2018-12-30T10:41:27.606Z,1238.50
2018-12-30T10:42:27.576Z,1239.50
2018-12-30T10:43:27.570Z,1228.70
2018-12-30T10:44:27.569Z,1238.50
2018-12-30T10:45:27.562Z,1236.50
2018-12-30T10:46:27.568Z,1250.60
2018-12-30T10:47:27.556Z,1248.10
2018-12-30T10:48:27.547Z,1249.70
2018-12-30T10:49:27.555Z,1262.10
2018-12-30T10:50:27.543Z,1254.00
2018-12-30T10:51:27.527Z,1251.20
2018-12-30T10:52:27.518Z,1259.40
2018-12-30T10:53:27.524Z,1241.60
2018-12-30T10:54:27.497Z,1248.60
2018-12-30T10:55:27.508Z,1248.00
2018-12-30T10:56:27.482Z,1238.70
2018-12-30T10:57:27.483Z,1247.70
2018-12-30T10:58:27.485Z,1251.90
2018-12-30T10:59:27.473Z,1248.40
2018-12-30T11:00:27.481Z,1244.90
2018-12-30T11:01:27.479Z,1235.10
2018-12-30T11:02:27.490Z,1241.30
2018-12-30T11:03:27.483Z,1235.70
2018-12-30T11:04:27.455Z,1245.10
2018-12-30T11:05:27.449Z,1235.50
2018-12-30T11:06:27.492Z,1247.50
2018-12-30T11:07:27.431Z,1244.80
2018-12-30T11:08:27.436Z,1249.60
2018-12-30T11:09:27.403Z,1254.50
2018-12-30T11:10:27.400Z,1234.40
2018-12-30T11:11:27.399Z,1248.70
2018-12-30T11:12:27.406Z,1249.30
2018-12-30T11:13:27.416Z,1241.50
2018-12-30T11:14:27.392Z,1238.10
2018-12-30T11:15:27.394Z,1242.00
2018-12-30T11:16:27.392Z,1255.40
2018-12-30T11:17:27.373Z,1245.50
2018-12-30T11:18:27.366Z,1249.90
2018-12-30T11:19:27.338Z,1227.10
2018-12-30T11:20:27.349Z,1248.90
2018-12-30T11:21:27.345Z,1237.70
2018-12-30T11:22:27.341Z,1234.60
2018-12-30T11:23:27.332Z,1230.50
2018-12-30T11:24:27.335Z,1224.90
2018-12-30T11:25:27.333Z,1211.70
2018-12-30T11:26:27.326Z,1214.80
2018-12-30T11:27:27.330Z,1229.50
2018-12-30T11:28:27.299Z,1204.80
2018-12-30T11:29:27.310Z,1223.40
2018-12-30T11:30:27.283Z,1206.50
2018-12-30T11:31:27.298Z,1202.70
2018-12-30T11:32:27.277Z,1197.10
2018-12-30T11:33:27.272Z,1193.80
2018-12-30T11:34:27.248Z,1197.00
2018-12-30T11:35:27.287Z,1198.50
2018-12-30T11:36:27.295Z,1208.80
2018-12-30T11:37:27.261Z,1208.80
2018-12-30T11:38:27.237Z,1199.90
2018-12-30T11:39:27.278Z,1206.60
2018-12-30T11:40:27.234Z,1203.10
2018-12-30T11:41:27.244Z,1198.50
2018-12-30T11:42:27.240Z,1208.80
2018-12-30T11:43:27.234Z,1208.30
2018-12-30T11:44:27.235Z,1221.90
2018-12-30T11:45:27.220Z,1207.80
2018-12-30T11:46:27.207Z,1222.40
2018-12-30T11:47:27.195Z,1221.30
2018-12-30T11:48:27.198Z,1235.00
2018-12-30T11:49:27.202Z,1216.50
2018-12-30T11:50:27.174Z,1220.20
2018-12-30T11:51:27.207Z,1225.20
2018-12-30T11:52:27.191Z,1229.40
2018-12-30T11:53:27.163Z,1229.70
2018-12-30T11:54:27.165Z,1228.30
2018-12-30T11:55:27.160Z,1221.50
2018-12-30T11:56:27.137Z,1224.50
2018-12-30T11:57:27.160Z,1227.00
2018-12-30T11:58:27.140Z,1234.90
2018-12-30T11:59:27.139Z,1237.70
2018-12-30T12:00:27.154Z,1222.00
2018-12-30T12:01:27.137Z,1237.70
2018-12-30T12:02:27.136Z,1230.70
2018-12-30T12:03:27.118Z,1226.60
2018-12-30T12:04:27.114Z,1213.90
2018-12-30T12:05:27.112Z,1217.40